Time;durP1;ratioP1;P1;durP2;ratioP2;P2;SDS_P1;SDS_P2;PMS_P1;PMS_P2;Temp;Humidity;BMP_temperature;BMP_pressure;BME280_temperature;BME280_humidity;BME280_pressure;Samples;Min_cycle;Max_cycle;Signal;HPM_P1;HPM_P2
2023/01/07 00:00:31;;;;;;;3.42;3.08;;;7.70;99.90;;;;;;6064460;23;20097;-82
2023/01/07 00:03:22;;;;;;;4.38;3.70;;;7.70;99.90;;;;;;6064716;23;20102;-83
2023/01/07 00:06:32;;;;;;;4.07;3.67;;;7.70;99.90;;;;;;6065249;23;20031;-83
2023/01/07 00:09:19;;;;;;;4.47;3.53;;;7.60;99.90;;;;;;6064557;23;20370;-83
2023/01/07 00:12:08;;;;;;;6.63;3.72;;;7.60;99.90;;;;;;6066536;23;20026;-83
2023/01/07 00:14:57;;;;;;;3.60;3.17;;;7.60;99.90;;;;;;6065910;23;20033;-84
2023/01/07 00:17:45;;;;;;;5.13;2.90;;;7.70;99.90;;;;;;6066284;23;20031;-83
2023/01/07 00:20:32;;;;;;;3.53;2.85;;;7.60;99.90;;;;;;6068550;23;20062;-84
2023/01/07 00:23:19;;;;;;;3.63;3.08;;;7.60;99.90;;;;;;6068255;23;20039;-83
2023/01/07 00:26:17;;;;;;;7.18;3.28;;;7.70;99.90;;;;;;6068514;23;20022;-84
2023/01/07 00:29:05;;;;;;;5.80;3.17;;;7.60;99.90;;;;;;6076286;23;20082;-83
2023/01/07 00:31:52;;;;;;;4.68;3.10;;;7.60;99.90;;;;;;6069512;23;20430;-83
2023/01/07 00:34:39;;;;;;;3.85;2.90;;;7.60;99.90;;;;;;6069524;23;20077;-82
2023/01/07 00:40:32;;;;;;;3.55;3.25;;;7.60;99.90;;;;;;6066963;23;20082;-82
2023/01/07 00:43:20;;;;;;;5.80;3.22;;;7.60;99.90;;;;;;6066992;23;20322;-84
2023/01/07 00:46:17;;;;;;;3.88;2.95;;;7.70;99.90;;;;;;6067940;23;20027;-82
2023/01/07 00:49:04;;;;;;;2.75;2.55;;;7.60;99.90;;;;;;6066801;23;20100;-83
2023/01/07 00:51:51;;;;;;;2.67;2.45;;;7.60;99.90;;;;;;6066567;23;20027;-83
2023/01/07 00:54:41;;;;;;;2.53;2.20;;;7.60;99.90;;;;;;6065427;23;20076;-82
2023/01/07 00:57:29;;;;;;;4.53;1.83;;;7.60;1.00;;;;;;6064736;23;20041;-81
2023/01/07 01:00:20;;;;;;;2.35;2.05;;;7.70;1.00;;;;;;6066345;23;20026;-82
2023/01/07 01:03:09;;;;;;;3.65;2.05;;;7.60;99.90;;;;;;6065062;23;20030;-83
2023/01/07 01:06:02;;;;;;;2.28;1.92;;;7.70;99.90;;;;;;6064073;23;20426;-82
2023/01/07 01:08:49;;;;;;;3.80;2.13;;;7.70;99.90;;;;;;6063243;23;20442;-82
2023/01/07 01:11:37;;;;;;;5.85;2.40;;;7.70;99.90;;;;;;6064765;23;20378;-83
2023/01/07 01:14:28;;;;;;;2.83;2.17;;;7.70;99.90;;;;;;6064457;23;20414;-83
2023/01/07 01:17:17;;;;;;;4.53;2.40;;;7.70;1.00;;;;;;6070349;23;20027;-82
2023/01/07 01:20:06;;;;;;;3.00;1.98;;;7.70;1.00;;;;;;6064487;23;20081;-83
2023/01/07 01:22:58;;;;;;;2.15;1.80;;;7.70;1.00;;;;;;6063871;23;20369;-83
2023/01/07 01:25:48;;;;;;;1.67;1.58;;;7.70;1.00;;;;;;6064645;23;20041;-82
2023/01/07 01:28:36;;;;;;;1.73;1.45;;;7.70;1.00;;;;;;6065695;23;20055;-83
2023/01/07 01:31:23;;;;;;;1.33;1.23;;;7.60;99.90;;;;;;6063362;23;20031;-82
2023/01/07 01:34:10;;;;;;;1.23;1.13;;;7.70;99.90;;;;;;6063814;23;20037;-83
2023/01/07 01:36:57;;;;;;;1.48;1.38;;;7.80;99.90;;;;;;6063306;23;20120;-84
2023/01/07 01:39:47;;;;;;;2.53;1.70;;;7.80;99.90;;;;;;6063757;23;20035;-83
2023/01/07 01:42:36;;;;;;;3.45;1.83;;;7.80;99.90;;;;;;6067243;23;20371;-82
2023/01/07 01:45:25;;;;;;;1.85;1.70;;;7.70;99.90;;;;;;6063610;23;20046;-83
2023/01/07 01:48:12;;;;;;;2.15;1.70;;;7.70;99.90;;;;;;6065647;23;20026;-83
2023/01/07 01:51:01;;;;;;;3.38;1.60;;;7.70;99.90;;;;;;6066253;23;20160;-84
2023/01/07 01:53:52;;;;;;;3.95;1.85;;;7.70;99.90;;;;;;6064086;23;20026;-83
2023/01/07 01:56:43;;;;;;;1.98;1.63;;;7.70;99.90;;;;;;6063328;23;20110;-82
2023/01/07 01:59:35;;;;;;;1.73;1.60;;;7.60;99.90;;;;;;6064815;23;20034;-83
2023/01/07 02:02:28;;;;;;;4.40;1.88;;;7.60;99.90;;;;;;6065886;23;20027;-83
2023/01/07 02:05:16;;;;;;;1.73;1.63;;;7.60;99.90;;;;;;6071555;23;20033;-83
2023/01/07 02:08:06;;;;;;;1.40;1.30;;;7.60;99.90;;;;;;6064497;23;20116;-83
2023/01/07 02:11:23;;;;;;;1.40;1.30;;;7.60;99.90;;;;;;6064079;23;20150;-83
2023/01/07 02:14:19;;;;;;;1.38;1.20;;;7.60;99.90;;;;;;6063958;23;20030;-84
2023/01/07 02:17:14;;;;;;;1.40;1.30;;;7.60;60.30;;;;;;6062832;23;20027;-83
2023/01/07 02:20:32;;;;;;;2.00;1.30;;;7.70;63.50;;;;;;6065281;23;20031;-84
2023/01/07 02:23:36;;;;;;;1.77;1.30;;;7.60;62.60;;;;;;6064605;23;20035;-84
2023/01/07 02:26:54;;;;;;;1.80;1.40;;;7.60;71.60;;;;;;6063652;23;20081;-83
2023/01/07 02:29:41;;;;;;;1.73;1.27;;;7.60;77.00;;;;;;6062895;23;20166;-83
2023/01/07 02:32:49;;;;;;;1.88;1.63;;;7.60;90.90;;;;;;6064271;23;20030;-83
2023/01/07 02:35:45;;;;;;;1.70;1.58;;;7.50;96.50;;;;;;6062757;23;20022;-83
2023/01/07 02:38:57;;;;;;;1.75;1.65;;;7.60;99.90;;;;;;6063891;23;20438;-82
2023/01/07 02:41:57;;;;;;;1.45;1.35;;;7.50;99.90;;;;;;6065395;23;20039;-83
2023/01/07 02:45:10;;;;;;;1.67;1.42;;;7.50;99.90;;;;;;6063272;23;20031;-82
2023/01/07 02:48:08;;;;;;;1.50;1.40;;;7.50;99.90;;;;;;6064348;23;20035;-82
2023/01/07 02:50:56;;;;;;;3.15;1.42;;;7.50;99.90;;;;;;6065831;23;20375;-83
2023/01/07 02:53:47;;;;;;;1.40;1.30;;;7.50;99.60;;;;;;6069661;23;20069;-83
2023/01/07 02:56:46;;;;;;;2.75;1.75;;;7.50;99.90;;;;;;6065309;23;20097;-83
2023/01/07 02:59:40;;;;;;;2.80;1.40;;;7.40;99.90;;;;;;6064130;23;20093;-83
2023/01/07 03:02:40;;;;;;;2.45;2.00;;;7.40;99.90;;;;;;6067084;23;20351;-82
2023/01/07 03:05:48;;;;;;;2.15;1.67;;;7.40;99.90;;;;;;6065758;23;20054;-83
2023/01/07 03:08:59;;;;;;;2.20;1.63;;;7.40;99.90;;;;;;6064038;23;20023;-82
2023/01/07 03:11:53;;;;;;;1.60;1.50;;;7.40;99.90;;;;;;6065236;23;20038;-83
2023/01/07 03:15:06;;;;;;;2.33;1.77;;;7.40;99.90;;;;;;6065247;23;20482;-83
2023/01/07 03:18:07;;;;;;;1.65;1.55;;;7.30;99.90;;;;;;6064641;23;20027;-83
2023/01/07 03:21:02;;;;;;;3.15;2.13;;;7.30;99.90;;;;;;6065695;23;20030;-83
2023/01/07 03:23:53;;;;;;;2.13;1.92;;;7.30;99.90;;;;;;6065533;23;20031;-83
2023/01/07 03:26:48;;;;;;;1.90;1.80;;;7.30;99.90;;;;;;6066532;23;20085;-83
2023/01/07 03:29:35;;;;;;;4.80;1.90;;;7.30;99.90;;;;;;6064343;23;20050;-83
2023/01/07 03:32:47;;;;;;;1.60;1.50;;;7.30;99.90;;;;;;6065984;23;20027;-84
2023/01/07 03:35:39;;;;;;;1.80;1.70;;;7.30;99.90;;;;;;6064594;23;20034;-83
2023/01/07 03:38:30;;;;;;;1.85;1.73;;;7.20;99.90;;;;;;6071654;23;20030;-83
2023/01/07 03:44:28;;;;;;;1.67;1.50;;;7.30;99.90;;;;;;6065131;23;20350;-83
2023/01/07 03:47:22;;;;;;;1.80;1.70;;;7.30;99.90;;;;;;6065967;23;20027;-83
2023/01/07 03:50:09;;;;;;;2.97;1.70;;;7.30;99.90;;;;;;6065154;23;20084;-83
2023/01/07 03:52:58;;;;;;;2.00;1.70;;;7.30;99.90;;;;;;6066319;23;20027;-82
2023/01/07 03:55:45;;;;;;;2.55;1.80;;;7.30;99.90;;;;;;6066171;23;20089;-83
2023/01/07 03:58:34;;;;;;;1.67;1.58;;;7.30;99.90;;;;;;6063805;23;20114;-83
2023/01/07 04:01:21;;;;;;;1.48;1.38;;;7.30;99.90;;;;;;6065166;23;20080;-84
2023/01/07 04:04:12;;;;;;;1.52;1.42;;;7.30;99.90;;;;;;6066955;23;20026;-84
2023/01/07 04:07:01;;;;;;;1.40;1.30;;;7.30;99.90;;;;;;6066443;23;20106;-84
2023/01/07 04:09:51;;;;;;;1.52;1.42;;;7.30;99.90;;;;;;6067759;23;20051;-83
2023/01/07 04:12:39;;;;;;;1.58;1.48;;;7.20;99.90;;;;;;6071665;23;20038;-83
2023/01/07 04:15:28;;;;;;;2.92;1.88;;;7.20;99.90;;;;;;6067440;23;20027;-83
2023/01/07 04:18:15;;;;;;;1.80;1.70;;;7.20;99.90;;;;;;6066931;23;20027;-82
2023/01/07 04:21:07;;;;;;;2.15;1.75;;;7.20;99.90;;;;;;6066675;23;20034;-83
2023/01/07 04:23:54;;;;;;;1.65;1.55;;;7.20;99.90;;;;;;6064150;23;20042;-84
2023/01/07 04:26:52;;;;;;;2.70;2.30;;;7.20;99.90;;;;;;6067670;23;20035;-84
2023/01/07 04:29:40;;;;;;;2.33;2.05;;;7.20;99.90;;;;;;6066971;23;20391;-83
2023/01/07 04:32:27;;;;;;;2.83;2.33;;;7.20;99.90;;;;;;6064390;23;20022;-83
2023/01/07 04:35:15;;;;;;;2.22;2.00;;;7.20;99.90;;;;;;6064620;23;20112;-82
2023/01/07 04:38:02;;;;;;;2.45;2.25;;;7.20;99.90;;;;;;6064954;23;20039;-83
2023/01/07 04:40:49;;;;;;;2.47;1.90;;;7.20;99.90;;;;;;6045349;23;20058;-82
2023/01/07 04:43:36;;;;;;;3.20;2.25;;;7.20;99.90;;;;;;6067112;23;20116;-83
2023/01/07 04:46:24;;;;;;;2.20;2.00;;;7.20;99.90;;;;;;6064269;23;20038;-83
2023/01/07 04:49:15;;;;;;;2.63;2.25;;;7.20;99.90;;;;;;6065989;23;20037;-83
2023/01/07 04:52:04;;;;;;;2.78;2.30;;;7.10;99.90;;;;;;6064026;23;20023;-83
2023/01/07 04:54:53;;;;;;;2.75;2.28;;;7.10;99.90;;;;;;6062762;23;20354;-82
2023/01/07 04:57:41;;;;;;;2.25;2.10;;;7.10;99.90;;;;;;6064897;23;20047;-84
2023/01/07 05:00:28;;;;;;;3.53;2.13;;;7.10;99.90;;;;;;6065328;23;20054;-84
2023/01/07 05:03:15;;;;;;;2.65;2.33;;;7.10;99.90;;;;;;6065953;23;20038;-83
2023/01/07 05:06:12;;;;;;;3.00;2.28;;;7.10;99.90;;;;;;6064404;23;20093;-83
2023/01/07 05:08:59;;;;;;;3.63;2.38;;;7.00;99.90;;;;;;6065067;23;20102;-84
2023/01/07 05:11:46;;;;;;;2.83;2.40;;;7.00;99.90;;;;;;6062993;23;20034;-84
2023/01/07 05:14:33;;;;;;;3.70;2.40;;;7.00;99.90;;;;;;6069313;23;20099;-84
2023/01/07 05:17:20;;;;;;;2.58;2.35;;;7.00;99.90;;;;;;6065460;23;20031;-83
2023/01/07 05:20:08;;;;;;;2.58;2.38;;;7.10;99.90;;;;;;6065030;23;20035;-83
2023/01/07 05:22:58;;;;;;;4.57;2.00;;;7.10;99.90;;;;;;6065063;23;20106;-83
2023/01/07 05:25:48;;;;;;;3.55;2.13;;;7.00;99.90;;;;;;6064822;23;20089;-83
2023/01/07 05:28:35;;;;;;;2.08;1.88;;;7.00;99.90;;;;;;6063070;23;20026;-83
2023/01/07 05:31:22;;;;;;;2.20;1.88;;;7.00;99.90;;;;;;6065132;23;20122;-83
2023/01/07 05:34:10;;;;;;;2.10;1.88;;;7.00;99.90;;;;;;6063427;23;20023;-84
2023/01/07 05:36:58;;;;;;;2.33;1.90;;;7.00;99.90;;;;;;6063552;23;20031;-83
2023/01/07 05:39:45;;;;;;;2.00;1.67;;;7.00;99.90;;;;;;6062066;23;20097;-82
2023/01/07 05:42:32;;;;;;;2.17;1.98;;;6.90;99.90;;;;;;6064890;23;20102;-84
2023/01/07 05:45:21;;;;;;;2.83;2.00;;;6.90;99.90;;;;;;6063716;23;20027;-83
2023/01/07 05:48:08;;;;;;;2.40;2.20;;;6.90;99.90;;;;;;6063926;23;20427;-84
2023/01/07 05:50:58;;;;;;;1.95;1.85;;;6.90;99.90;;;;;;6062637;23;20031;-83
2023/01/07 05:53:45;;;;;;;2.47;2.28;;;6.90;99.90;;;;;;6043639;23;20027;-85
2023/01/07 05:56:32;;;;;;;3.83;1.90;;;6.90;99.90;;;;;;6063998;23;20157;-85
2023/01/07 05:59:19;;;;;;;2.45;2.25;;;6.90;99.90;;;;;;6064882;23;20097;-84
2023/01/07 06:02:07;;;;;;;2.25;2.05;;;6.90;99.90;;;;;;6067301;23;20088;-84
2023/01/07 06:04:59;;;;;;;2.00;1.90;;;6.90;99.90;;;;;;6065351;23;20379;-84
2023/01/07 06:07:47;;;;;;;3.83;2.10;;;6.90;99.90;;;;;;6064588;23;20030;-84
2023/01/07 06:10:35;;;;;;;3.20;1.95;;;6.90;93.90;;;;;;6064511;23;20272;-84
2023/01/07 06:13:24;;;;;;;2.63;2.42;;;6.80;83.80;;;;;;6063131;23;20023;-83
2023/01/07 06:16:12;;;;;;;2.72;2.53;;;6.80;32.20;;;;;;6064859;23;20085;-84
2023/01/07 06:19:00;;;;;;;2.72;2.53;;;6.80;11.20;;;;;;6064076;23;20504;-83
2023/01/07 06:21:48;;;;;;;2.47;2.25;;;6.80;1.00;;;;;;6066067;23;20084;-84
2023/01/07 06:24:40;;;;;;;2.67;2.47;;;6.80;1.00;;;;;;6063968;23;20042;-84
2023/01/07 06:27:27;;;;;;;4.28;2.30;;;6.80;5.30;;;;;;6062541;23;20041;-84
2023/01/07 06:30:17;;;;;;;2.78;1.90;;;6.80;12.40;;;;;;6064457;23;20092;-83
2023/01/07 06:33:22;;;;;;;2.47;1.98;;;6.70;23.90;;;;;;6065618;23;20035;-83
2023/01/07 06:36:10;;;;;;;1.70;1.60;;;6.70;20.80;;;;;;6064223;23;20026;-84
2023/01/07 06:39:00;;;;;;;1.88;1.77;;;6.70;1.00;;;;;;6066427;23;20023;-83
2023/01/07 06:41:47;;;;;;;1.60;1.50;;;6.70;1.00;;;;;;6064203;23;20023;-84
2023/01/07 06:45:03;;;;;;;2.15;1.50;;;6.80;1.00;;;;;;6065057;23;20114;-84
2023/01/07 06:47:57;;;;;;;1.58;1.48;;;6.80;1.00;;;;;;6065966;23;20125;-84
2023/01/07 06:50:46;;;;;;;2.05;1.85;;;6.70;1.00;;;;;;6075504;23;20042;-82
2023/01/07 06:53:33;;;;;;;2.33;2.15;;;6.70;1.00;;;;;;6064333;23;20026;-83
2023/01/07 06:56:37;;;;;;;2.50;2.30;;;6.70;1.00;;;;;;6064830;23;20088;-82
2023/01/07 06:59:25;;;;;;;1.85;1.75;;;6.70;1.00;;;;;;6063680;23;20102;-83
2023/01/07 07:02:23;;;;;;;2.00;1.80;;;6.60;1.00;;;;;;6044191;23;20039;-83
2023/01/07 07:05:26;;;;;;;2.35;1.80;;;6.70;1.00;;;;;;6065060;23;20031;-83
2023/01/07 07:08:13;;;;;;;2.15;1.88;;;6.70;1.00;;;;;;6066240;23;20054;-83
2023/01/07 07:11:00;;;;;;;2.25;2.00;;;6.70;1.00;;;;;;6063564;23;20030;-83
2023/01/07 07:13:47;;;;;;;2.20;2.00;;;6.60;1.00;;;;;;6063685;23;20109;-83
2023/01/07 07:16:34;;;;;;;2.20;2.10;;;6.60;7.50;;;;;;6065254;23;20093;-83
2023/01/07 07:19:24;;;;;;;2.60;2.40;;;6.60;18.80;;;;;;6065511;23;20042;-83
2023/01/07 07:22:11;;;;;;;2.78;2.33;;;6.60;28.50;;;;;;6064129;23;20031;-84
2023/01/07 07:25:01;;;;;;;2.60;2.40;;;6.60;44.10;;;;;;6065829;23;20027;-83
2023/01/07 07:27:50;;;;;;;4.75;3.03;;;6.60;66.10;;;;;;6062655;23;20112;-82
2023/01/07 07:30:37;;;;;;;3.13;2.45;;;6.60;99.90;;;;;;6064521;23;20080;-82
2023/01/07 07:33:54;;;;;;;2.03;1.92;;;6.60;99.90;;;;;;6065312;23;20027;-82
2023/01/07 07:36:45;;;;;;;2.20;2.05;;;6.60;99.90;;;;;;6066887;23;20035;-83
2023/01/07 07:39:38;;;;;;;2.83;2.00;;;6.60;99.90;;;;;;6069988;23;20027;-82
2023/01/07 07:42:25;;;;;;;3.28;2.55;;;6.60;99.90;;;;;;6066073;23;20054;-82
2023/01/07 07:45:14;;;;;;;3.10;2.15;;;6.60;99.90;;;;;;6065084;23;20085;-82
2023/01/07 07:48:08;;;;;;;3.42;2.08;;;6.60;99.90;;;;;;6064948;23;20030;-83
2023/01/07 07:50:56;;;;;;;3.13;2.40;;;6.60;99.90;;;;;;6065574;23;20098;-83
2023/01/07 07:53:46;;;;;;;2.72;1.98;;;6.60;99.90;;;;;;6065863;23;20050;-82
2023/01/07 07:56:40;;;;;;;2.85;2.00;;;6.60;99.90;;;;;;6064412;23;20031;-82
2023/01/07 07:59:30;;;;;;;2.15;1.92;;;6.70;99.90;;;;;;6065259;23;20027;-83
2023/01/07 08:02:21;;;;;;;1.90;1.80;;;6.70;99.90;;;;;;6066598;23;20085;-84
2023/01/07 08:05:14;;;;;;;2.85;2.00;;;6.70;99.90;;;;;;6065197;23;20110;-84
2023/01/07 08:08:13;;;;;;;3.85;2.40;;;6.70;99.90;;;;;;6064954;23;20034;-83
2023/01/07 08:11:02;;;;;;;3.80;2.83;;;6.80;99.90;;;;;;6065542;23;20031;-86
2023/01/07 08:14:12;;;;;;;4.75;2.88;;;6.80;99.90;;;;;;6064792;23;20057;-84
2023/01/07 08:17:02;;;;;;;3.17;2.88;;;7.00;99.90;;;;;;6064562;23;20054;-83
2023/01/07 08:20:01;;;;;;;4.85;3.30;;;7.00;99.90;;;;;;6063632;23;20101;-82
2023/01/07 08:23:01;;;;;;;3.80;3.50;;;7.00;60.90;;;;;;6066911;23;20043;-83
2023/01/07 08:25:55;;;;;;;3.58;3.28;;;7.10;40.70;;;;;;6074704;23;20081;-83
2023/01/07 08:28:43;;;;;;;3.42;2.90;;;7.10;1.00;;;;;;6069041;23;20034;-83
2023/01/07 08:31:38;;;;;;;4.32;2.85;;;7.10;1.00;;;;;;6070471;23;20031;-82
2023/01/07 08:34:33;;;;;;;2.60;2.40;;;7.10;1.00;;;;;;6069057;23;20042;-84
2023/01/07 08:37:23;;;;;;;3.90;2.70;;;7.20;1.00;;;;;;6070969;23;20027;-83
2023/01/07 08:40:18;;;;;;;2.30;2.10;;;7.20;1.00;;;;;;6069104;23;20042;-83
2023/01/07 08:43:08;;;;;;;3.03;2.20;;;7.20;1.00;;;;;;6064996;23;20315;-83
2023/01/07 08:45:55;;;;;;;4.45;2.35;;;7.20;1.00;;;;;;6064145;23;20034;-84
2023/01/07 08:52:00;;;;;;;3.70;2.45;;;7.30;1.00;;;;;;6044532;23;20038;-84
2023/01/07 08:54:52;;;;;;;2.97;2.17;;;7.40;1.00;;;;;;6065224;23;20330;-84
2023/01/07 08:57:39;;;;;;;3.35;2.47;;;7.40;1.00;;;;;;6064021;23;20121;-84
2023/01/07 09:00:33;;;;;;;4.97;3.25;;;7.40;1.00;;;;;;6063624;23;20030;-84
2023/01/07 09:03:22;;;;;;;6.15;3.67;;;7.50;1.00;;;;;;6063595;23;20022;-82
2023/01/07 09:06:16;;;;;;;7.25;5.10;;;7.50;1.00;;;;;;6064748;23;20037;-83
2023/01/07 09:09:13;;;;;;;10.40;5.85;;;7.50;1.00;;;;;;6063712;23;20026;-83
2023/01/07 09:12:14;;;;;;;7.32;4.78;;;7.60;1.00;;;;;;6070129;23;20035;-84
2023/01/07 09:15:22;;;;;;;6.68;4.82;;;7.60;1.00;;;;;;6069817;23;20026;-84
2023/01/07 09:18:09;;;;;;;8.35;5.88;;;7.70;1.00;;;;;;6064530;23;20034;-85
2023/01/07 09:21:01;;;;;;;7.93;5.93;;;7.70;1.00;;;;;;6062985;23;20030;-85
2023/01/07 09:24:06;;;;;;;6.70;5.43;;;7.70;1.00;;;;;;6062875;23;20086;-85
2023/01/07 09:26:53;;;;;;;8.63;6.10;;;7.60;1.00;;;;;;6064771;23;20027;-84
2023/01/07 09:29:41;;;;;;;8.45;5.95;;;7.60;1.00;;;;;;6063613;23;20489;-85
2023/01/07 09:32:34;;;;;;;9.38;6.45;;;7.70;1.00;;;;;;6062756;23;20033;-84
2023/01/07 09:35:21;;;;;;;8.55;6.57;;;7.70;1.00;;;;;;6064066;23;20037;-85
2023/01/07 09:38:09;;;;;;;10.27;6.95;;;7.80;1.00;;;;;;6065069;23;20111;-84
2023/01/07 09:40:59;;;;;;;9.48;6.78;;;7.90;99.90;;;;;;6063702;23;20359;-84
2023/01/07 09:43:59;;;;;;;8.32;6.40;;;8.00;99.90;;;;;;6063995;23;20084;-84
2023/01/07 09:47:05;;;;;;;10.40;6.70;;;8.00;99.90;;;;;;6063569;23;20034;-84
2023/01/07 09:50:09;;;;;;;10.75;6.88;;;8.10;99.90;;;;;;6063371;23;20035;-85
2023/01/07 09:53:07;;;;;;;8.23;6.47;;;8.20;99.90;;;;;;6064450;23;20069;-85
2023/01/07 09:56:29;;;;;;;7.88;5.85;;;8.60;99.90;;;;;;6063440;23;20118;-84
2023/01/07 09:59:19;;;;;;;7.82;5.80;;;9.10;99.90;;;;;;6065042;23;20041;-84
2023/01/07 10:02:50;;;;;;;7.55;5.75;;;9.50;99.90;;;;;;6069998;23;20057;-82
2023/01/07 10:05:46;;;;;;;7.82;5.97;;;10.20;86.80;;;;;;6065600;23;20160;-83
2023/01/07 10:08:55;;;;;;;8.20;6.05;;;9.50;10.70;;;;;;6066688;23;20050;-83
2023/01/07 10:12:01;;;;;;;8.63;6.32;;;9.90;2.40;;;;;;6065817;23;20027;-84
2023/01/07 10:15:28;;;;;;;8.35;6.75;;;10.00;1.00;;;;;;6066521;23;20113;-85
2023/01/07 10:19:07;;;;;;;9.63;7.05;;;9.10;1.00;;;;;;6063318;23;20046;-84
2023/01/07 10:22:03;;;;;;;9.77;6.80;;;9.40;1.00;;;;;;6154604;23;20096;-84
2023/01/07 10:25:16;;;;;;;7.57;5.90;;;10.20;1.00;;;;;;6139030;23;20033;-83
2023/01/07 10:28:43;;;;;;;8.00;5.82;;;10.80;1.00;;;;;;6153553;23;20034;-85
2023/01/07 10:31:38;;;;;;;6.78;5.35;;;10.60;1.00;;;;;;6156013;23;20025;-85
2023/01/07 10:34:42;;;;;;;7.20;5.50;;;10.60;1.00;;;;;;6154240;23;20053;-83
2023/01/07 10:37:32;;;;;;;7.25;6.07;;;10.60;1.00;;;;;;6064492;23;20074;-82
2023/01/07 10:40:39;;;;;;;6.95;5.30;;;10.60;1.00;;;;;;6064366;23;20419;-81
2023/01/07 10:44:12;;;;;;;6.05;5.05;;;10.60;1.00;;;;;;6063716;23;20521;-85
2023/01/07 10:47:43;;;;;;;6.55;5.30;;;11.10;1.00;;;;;;6069494;23;20026;-84
2023/01/07 10:50:56;;;;;;;8.48;5.65;;;11.10;99.90;;;;;;6067421;23;20092;-83
2023/01/07 10:54:22;;;;;;;8.10;5.13;;;11.20;99.90;;;;;;6065369;23;20034;-83
2023/01/07 10:57:20;;;;;;;5.60;5.00;;;11.50;99.90;;;;;;6065415;23;20027;-84
2023/01/07 11:00:15;;;;;;;6.75;5.30;;;12.00;99.90;;;;;;6065474;23;20035;-85
2023/01/07 11:03:02;;;;;;;6.25;5.07;;;11.90;99.90;;;;;;6064883;23;20319;-87
2023/01/07 11:05:59;;;;;;;6.32;4.97;;;11.80;99.90;;;;;;6065838;23;20038;-86
2023/01/07 11:08:48;;;;;;;6.45;5.20;;;11.60;99.90;;;;;;6064121;23;20662;-85
2023/01/07 11:11:46;;;;;;;7.05;4.90;;;11.80;99.90;;;;;;6064106;23;20038;-86
2023/01/07 11:14:43;;;;;;;9.70;5.00;;;12.20;99.90;;;;;;6063922;23;20080;-84
2023/01/07 11:21:01;;;;;;;7.00;4.93;;;12.20;99.90;;;;;;6064597;23;20053;-86
2023/01/07 11:23:48;;;;;;;6.85;4.97;;;12.20;99.90;;;;;;6065426;23;20027;-86
2023/01/07 11:26:36;;;;;;;7.05;5.53;;;12.20;99.90;;;;;;6064329;23;20030;-87
2023/01/07 11:30:14;;;;;;;6.53;5.00;;;12.40;99.90;;;;;;6063955;23;20027;-86
2023/01/07 11:33:07;;;;;;;5.63;4.30;;;12.60;99.90;;;;;;6064955;23;20027;-85
2023/01/07 11:35:55;;;;;;;;;;;12.60;99.90;;;;;;6065342;23;20411;-85
2023/01/07 11:38:46;;;;;;;4.88;4.13;;;12.30;99.90;;;;;;6082703;23;19953;-84
2023/01/07 11:41:49;;;;;;;4.97;3.88;;;12.60;99.90;;;;;;6063798;23;20027;-84
2023/01/07 11:44:37;;;;;;;5.57;4.65;;;13.10;99.90;;;;;;6065621;23;20030;-84
2023/01/07 11:47:26;;;;;;;6.55;4.70;;;13.20;99.90;;;;;;6065648;23;20134;-84
2023/01/07 11:50:34;;;;;;;7.03;4.80;;;13.20;99.90;;;;;;6064510;23;20153;-84
2023/01/07 11:53:40;;;;;;;5.05;3.97;;;12.90;99.90;;;;;;6064221;23;20104;-84
2023/01/07 11:56:37;;;;;;;4.07;3.63;;;13.30;99.90;;;;;;6063703;23;20023;-86
2023/01/07 11:59:29;;;;;;;4.70;3.67;;;13.60;99.90;;;;;;6064695;23;20038;-84
2023/01/07 12:02:26;;;;;;;4.90;4.25;;;13.90;99.90;;;;;;6064871;23;20037;-86
2023/01/07 12:05:28;;;;;;;6.07;4.22;;;14.50;99.90;;;;;;6065389;23;20049;-85
2023/01/07 12:08:21;;;;;;;7.28;4.32;;;15.20;99.90;;;;;;6065817;23;20112;-84
2023/01/07 12:11:49;;;;;;;7.07;4.20;;;15.30;99.90;;;;;;6063946;23;20098;-83
2023/01/07 12:14:48;;;;;;;5.22;4.43;;;15.30;99.90;;;;;;6006870;23;20039;-83
2023/01/07 12:17:47;;;;;;;5.40;3.65;;;15.30;99.90;;;;;;6035704;23;20026;-83
2023/01/07 12:20:59;;;;;;;4.85;3.85;;;14.70;99.90;;;;;;6064893;23;20042;-84
2023/01/07 12:24:23;;;;;;;4.15;3.53;;;14.40;99.90;;;;;;6065229;23;20120;-84
2023/01/07 12:27:47;;;;;;;4.70;3.70;;;14.40;99.90;;;;;;6064621;23;20027;-84
2023/01/07 12:30:48;;;;;;;5.30;3.85;;;14.70;99.90;;;;;;6066094;23;20030;-83
2023/01/07 12:33:54;;;;;;;4.32;3.65;;;15.10;99.90;;;;;;6064412;23;20041;-82
2023/01/07 12:37:11;;;;;;;5.80;4.30;;;14.90;99.90;;;;;;6065106;23;20106;-84
2023/01/07 12:40:15;;;;;;;4.30;3.50;;;15.00;99.90;;;;;;6064492;23;21083;-84
2023/01/07 12:43:36;;;;;;;4.55;4.13;;;15.10;99.90;;;;;;6065147;23;20055;-84
2023/01/07 12:46:32;;;;;;;6.28;4.00;;;15.10;99.90;;;;;;6065672;23;20027;-84
2023/01/07 12:49:31;;;;;;;7.53;4.57;;;15.10;99.90;;;;;;6063355;23;20038;-83
2023/01/07 12:52:37;;;;;;;5.60;4.13;;;15.30;99.90;;;;;;6064641;23;20370;-84
2023/01/07 12:55:47;;;;;;;6.90;4.15;;;15.40;99.90;;;;;;6067439;23;20027;-84
2023/01/07 12:58:48;;;;;;;5.78;4.00;;;15.50;99.90;;;;;;6073986;23;20030;-83
2023/01/07 13:01:46;;;;;;;4.63;3.47;;;16.10;99.90;;;;;;6074944;23;20027;-83
2023/01/07 13:05:03;;;;;;;3.95;3.55;;;16.00;99.90;;;;;;6069396;23;20122;-83
2023/01/07 13:08:00;;;;;;;6.53;3.50;;;16.00;99.90;;;;;;6074442;23;20327;-85
2023/01/07 13:10:58;;;;;;;4.30;3.25;;;15.60;99.90;;;;;;6077840;23;20023;-84
2023/01/07 13:14:27;;;;;;;5.82;3.40;;;14.70;99.90;;;;;;6077223;23;20037;-84
2023/01/07 13:17:23;;;;;;;3.53;3.05;;;14.40;99.90;;;;;;6067073;23;20077;-83
2023/01/07 13:20:31;;;;;;;4.50;2.90;;;14.40;99.90;;;;;;6066413;23;20026;-85
2023/01/07 13:23:25;;;;;;;4.38;3.35;;;14.50;99.90;;;;;;6069085;23;20437;-85
2023/01/07 13:26:43;;;;;;;5.90;3.40;;;14.60;99.90;;;;;;6068208;23;20030;-85
2023/01/07 13:30:29;;;;;;;3.75;3.05;;;14.30;99.90;;;;;;6065535;23;20352;-84
2023/01/07 13:33:41;;;;;;;5.82;3.55;;;14.50;99.90;;;;;;6064353;23;20038;-83
2023/01/07 13:36:46;;;;;;;3.80;2.88;;;14.80;99.90;;;;;;6064299;23;20042;-83
2023/01/07 13:40:08;;;;;;;3.88;3.47;;;15.00;99.90;;;;;;6062574;23;20039;-84
2023/01/07 13:43:12;;;;;;;3.93;3.23;;;14.30;99.90;;;;;;6063015;23;20031;-85
2023/01/07 13:46:23;;;;;;;8.23;3.30;;;14.20;99.90;;;;;;6063498;23;20031;-85
2023/01/07 13:49:35;;;;;;;5.80;3.40;;;14.30;99.90;;;;;;6062800;23;20330;-87
2023/01/07 13:52:36;;;;;;;3.75;3.35;;;14.40;99.90;;;;;;6064416;23;20082;-83
2023/01/07 13:55:31;;;;;;;3.65;2.97;;;14.00;99.90;;;;;;6065191;23;20091;-82
2023/01/07 13:58:30;;;;;;;3.92;3.17;;;13.90;99.90;;;;;;6062919;23;20394;-85
2023/01/07 14:01:28;;;;;;;3.88;3.30;;;14.10;99.90;;;;;;6064259;23;20027;-84
2023/01/07 14:04:55;;;;;;;3.92;3.00;;;14.00;99.90;;;;;;6062633;23;20575;-83
2023/01/07 14:07:49;;;;;;;3.40;3.10;;;14.40;99.90;;;;;;6064424;23;20091;-86
2023/01/07 14:10:38;;;;;;;4.03;3.08;;;14.70;99.90;;;;;;6063240;23;20027;-84
2023/01/07 14:14:05;;;;;;;;;;;14.40;99.90;;;;;;6063323;23;20037;-84
2023/01/07 14:17:20;;;;;;;4.15;3.15;;;14.40;99.90;;;;;;6065387;23;19921;-83
2023/01/07 14:20:41;;;;;;;4.53;3.55;;;14.00;99.90;;;;;;6063779;23;20030;-85
2023/01/07 14:23:53;;;;;;;3.60;2.95;;;13.80;99.90;;;;;;6063223;23;20718;-85
2023/01/07 14:26:56;;;;;;;6.05;3.80;;;13.70;99.90;;;;;;6063629;23;20314;-85
2023/01/07 14:29:56;;;;;;;5.25;3.83;;;13.30;99.90;;;;;;6062196;23;20027;-85
2023/01/07 14:33:01;;;;;;;5.82;3.50;;;13.20;99.90;;;;;;6063335;23;20099;-84
2023/01/07 14:36:17;;;;;;;4.00;3.20;;;12.90;99.90;;;;;;6063977;23;20322;-84
2023/01/07 14:39:24;;;;;;;5.10;3.53;;;12.20;99.90;;;;;;6152700;23;20022;-84
2023/01/07 14:42:41;;;;;;;4.35;3.88;;;11.70;99.90;;;;;;6148240;23;20033;-84
2023/01/07 14:45:40;;;;;;;4.07;3.40;;;12.00;99.90;;;;;;6063212;23;20050;-84
2023/01/07 14:48:57;;;;;;;4.57;3.40;;;12.60;99.90;;;;;;6064796;23;20041;-83
2023/01/07 14:51:56;;;;;;;5.30;3.83;;;12.80;99.90;;;;;;6091375;23;20098;-83
2023/01/07 14:55:33;;;;;;;4.63;3.60;;;12.30;99.90;;;;;;6064526;23;20389;-84
2023/01/07 14:58:22;;;;;;;5.18;3.72;;;11.80;99.90;;;;;;6066136;23;20027;-83
2023/01/07 15:01:47;;;;;;;6.28;3.95;;;11.10;99.90;;;;;;6064984;23;20031;-82
2023/01/07 15:05:22;;;;;;;5.57;4.10;;;11.10;99.90;;;;;;6064460;23;20027;-83
2023/01/07 15:17:57;;;;;;;6.07;4.05;;;10.30;99.90;;;;;;6064146;23;20026;-81
2023/01/07 15:21:09;;;;;;;6.35;4.43;;;9.70;99.90;;;;;;6064142;23;20031;-82
2023/01/07 15:24:40;;;;;;;5.75;3.90;;;9.40;99.90;;;;;;6064286;23;20031;-83
2023/01/07 15:27:39;;;;;;;7.30;3.97;;;9.20;99.90;;;;;;6063497;23;20027;-84
2023/01/07 15:31:03;;;;;;;8.30;4.50;;;9.20;99.90;;;;;;6064291;23;20030;-83
2023/01/07 15:34:14;;;;;;;16.25;5.10;;;9.10;99.90;;;;;;6064675;23;20027;-83
2023/01/07 15:37:06;;;;;;;9.13;4.53;;;9.00;99.90;;;;;;6063512;23;20097;-82
2023/01/07 15:40:06;;;;;;;7.32;5.13;;;8.80;99.90;;;;;;6065540;23;20441;-82
2023/01/07 15:43:05;;;;;;;7.60;5.10;;;8.60;99.90;;;;;;6065698;23;20038;-83
2023/01/07 15:46:22;;;;;;;6.18;4.95;;;8.60;99.90;;;;;;6064683;23;20138;-82
2023/01/07 15:49:15;;;;;;;8.98;5.45;;;8.40;99.90;;;;;;6066051;23;20107;-84
2023/01/07 15:52:26;;;;;;;7.75;5.00;;;8.40;99.90;;;;;;6065350;23;20033;-84
2023/01/07 15:55:47;;;;;;;5.45;4.47;;;8.30;99.90;;;;;;6063686;23;20025;-83